Time;durP1;ratioP1;P1;durP2;ratioP2;P2;SDS_P1;SDS_P2;PMS_P1;PMS_P2;Temp;Humidity;BMP_temperature;BMP_pressure;BME280_temperature;BME280_humidity;BME280_pressure;Samples;Min_cycle;Max_cycle;Signal;HPM_P1;HPM_P2
2022/01/05 08:50:52;;;;;;;10.28;5.35;;;;;;;6.43;97.48;98714.76;1711678;83;21576;-38
2022/01/05 08:53:19;;;;;;;13.83;4.95;;;;;;;6.45;97.14;98713.47;1671144;83;21012;-37
2022/01/05 08:55:47;;;;;;;11.57;5.78;;;;;;;6.46;96.78;98711.29;1652283;85;21087;-37
2022/01/05 08:58:14;;;;;;;12.53;6.53;;;;;;;6.49;96.56;98703.45;1704754;82;21037;-38
2022/01/05 09:00:41;;;;;;;10.23;5.12;;;;;;;6.51;96.16;98707.78;1706908;83;21049;-37
2022/01/05 09:03:09;;;;;;;11.00;5.78;;;;;;;6.55;96.02;98700.39;1722702;82;21047;-44
2022/01/05 09:05:35;;;;;;;6.70;5.83;;;;;;;6.58;95.76;98696.89;1724167;82;21055;-37
2022/01/05 09:08:03;;;;;;;9.33;5.70;;;;;;;6.60;95.40;98698.58;1702718;82;21006;-37
2022/01/05 09:10:30;;;;;;;8.65;5.40;;;;;;;6.65;95.19;98701.14;1700922;84;21112;-39
2022/01/05 09:12:58;;;;;;;10.80;5.40;;;;;;;6.69;95.10;98686.39;1700116;82;21053;-37
2022/01/05 09:15:25;;;;;;;7.47;5.72;;;;;;;6.71;95.03;98690.69;1722547;83;21491;-37
2022/01/05 09:17:52;;;;;;;7.42;5.15;;;;;;;6.74;94.41;98691.11;1721376;82;21021;-44
2022/01/05 09:20:19;;;;;;;9.58;5.95;;;;;;;6.75;94.48;98701.48;1708180;83;20987;-38
2022/01/05 09:22:46;;;;;;;11.93;6.80;;;;;;;6.75;94.49;98694.98;1701280;82;21687;-38
2022/01/05 09:25:14;;;;;;;11.50;6.25;;;;;;;6.80;94.42;98692.34;1708570;82;21022;-38
2022/01/05 09:27:41;;;;;;;9.55;6.62;;;;;;;6.82;93.93;98685.38;1692050;83;21857;-37
2022/01/05 09:30:10;;;;;;;10.43;6.28;;;;;;;6.84;93.30;98693.61;1691778;83;21047;-44
2022/01/05 09:32:39;;;;;;;11.57;6.53;;;;;;;6.89;93.34;98687.89;1686965;84;21116;-44
2022/01/05 09:35:08;;;;;;;10.70;6.55;;;;;;;6.92;93.01;98668.38;1689805;83;20989;-38
2022/01/05 09:37:39;;;;;;;9.10;5.50;;;;;;;6.97;92.68;98675.27;1691698;82;21523;-38
2022/01/05 09:42:50;;;;;;;7.95;5.55;;;;;;;7.06;92.98;98677.75;1690943;83;21953;-44
2022/01/05 09:45:22;;;;;;;9.40;5.92;;;;;;;7.09;92.99;98669.48;1702163;84;21509;-38
2022/01/05 09:48:28;;;;;;;14.70;8.23;;;;;;;7.14;92.93;98671.59;1721898;82;21035;-44
2022/01/05 09:51:00;;;;;;;11.50;6.95;;;;;;;7.20;92.95;98669.36;1706410;82;21629;-37
2022/01/05 09:53:28;;;;;;;14.60;8.83;;;;;;;7.25;92.56;98670.58;1689576;85;21509;-38
2022/01/05 09:55:55;;;;;;;12.07;8.18;;;;;;;7.27;92.20;98674.91;1718143;82;21061;-44
2022/01/05 09:58:22;;;;;;;15.60;8.28;;;;;;;7.30;92.03;98690.90;1699081;83;21469;-43
2022/01/05 10:00:50;;;;;;;10.25;6.83;;;;;;;7.31;91.85;98687.45;1714109;82;21561;-37
2022/01/05 10:03:17;;;;;;;12.00;6.87;;;;;;;7.33;92.00;98681.77;1730817;82;21017;-36
2022/01/05 10:05:44;;;;;;;8.48;5.58;;;;;;;7.38;91.79;98681.27;1721918;82;20977;-37
2022/01/05 10:08:11;;;;;;;12.15;7.78;;;;;;;7.42;91.52;98690.33;1709789;83;20990;-43
2022/01/05 10:10:38;;;;;;;27.10;15.35;;;;;;;7.50;91.06;98704.98;1710018;84;21470;-43
2022/01/05 10:44:14;;;;;;;9.60;6.00;;;;;;;8.55;86.16;98679.11;1697429;82;21084;-37
2022/01/05 10:46:45;;;;;;;11.93;6.42;;;;;;;8.64;84.07;98686.34;1699062;82;21077;-36
2022/01/05 10:49:35;;;;;;;10.85;6.67;;;;;;;8.63;84.98;98681.98;1681260;83;21073;-42
2022/01/05 10:52:26;;;;;;;9.85;5.65;;;;;;;8.67;84.68;98678.89;1685045;83;21065;-37
2022/01/05 10:54:53;;;;;;;8.75;6.37;;;;;;;8.79;84.76;98674.31;1689580;82;21010;-37
2022/01/05 10:57:19;;;;;;;11.90;5.60;;;;;;;8.89;84.43;98685.44;1709843;82;21061;-43
2022/01/05 10:59:53;;;;;;;7.58;5.70;;;;;;;8.92;84.01;98682.75;1704198;83;21081;-43
2022/01/05 11:02:32;;;;;;;8.00;5.67;;;;;;;8.97;84.30;98691.80;1702598;82;21045;-36
2022/01/05 11:05:09;;;;;;;9.20;6.00;;;;;;;8.99;84.20;98693.52;1708082;82;21074;-37
2022/01/05 11:07:38;;;;;;;8.88;6.15;;;;;;;9.01;84.35;98698.25;1714143;82;21051;-38
2022/01/05 11:10:09;;;;;;;9.98;6.22;;;;;;;9.00;84.23;98698.28;1711658;82;21007;-36
2022/01/05 11:12:41;;;;;;;10.78;6.00;;;;;;;8.99;84.63;98690.05;1716897;82;21101;-44
2022/01/05 11:15:31;;;;;;;7.53;5.33;;;;;;;8.96;85.08;98681.82;1696436;82;21014;-43
2022/01/05 11:18:17;;;;;;;10.03;6.70;;;;;;;8.96;85.38;98688.78;1704095;82;21585;-37
2022/01/05 11:21:01;;;;;;;9.08;5.65;;;;;;;8.96;85.20;98685.73;1701480;82;21013;-43
2022/01/05 11:23:31;;;;;;;8.18;5.25;;;;;;;8.93;85.20;98687.11;1725076;81;21027;-42
2022/01/05 11:25:59;;;;;;;7.08;5.12;;;;;;;8.87;85.13;98689.84;1701728;84;21962;-37
2022/01/05 11:28:27;;;;;;;9.50;5.80;;;;;;;8.80;85.37;98691.67;1694141;82;21450;-37
2022/01/05 11:30:55;;;;;;;10.00;6.00;;;;;;;8.75;85.64;98686.12;1701917;84;21179;-37
2022/01/05 11:33:22;;;;;;;10.78;5.95;;;;;;;8.71;85.81;98683.17;1699319;82;21017;-36
2022/01/05 11:35:49;;;;;;;8.18;5.85;;;;;;;8.69;85.97;98685.78;1721326;81;20971;-37
2022/01/05 11:38:16;;;;;;;10.78;6.20;;;;;;;8.66;86.22;98689.77;1726407;82;21086;-43
2022/01/05 11:40:51;;;;;;;14.87;5.87;;;;;;;8.65;86.10;98691.97;1696252;81;20948;-43
2022/01/05 11:43:32;;;;;;;9.03;5.50;;;;;;;8.61;86.41;98688.13;1698795;82;21027;-36
2022/01/05 11:46:18;;;;;;;9.10;6.20;;;;;;;8.57;86.77;98685.14;1724290;82;21627;-38
2022/01/05 11:49:10;;;;;;;10.48;5.85;;;;;;;8.55;86.87;98676.06;1695984;83;22014;-37
2022/01/05 11:51:46;;;;;;;9.03;5.47;;;;;;;8.51;87.16;98664.81;1721177;82;21028;-37
2022/01/05 11:54:25;;;;;;;7.37;5.53;;;;;;;8.51;87.37;98662.66;1701721;82;21050;-37
2022/01/05 11:56:57;;;;;;;11.93;6.03;;;;;;;8.50;87.49;98660.49;1706636;83;21010;-36
2022/01/05 11:59:35;;;;;;;9.35;5.97;;;;;;;8.49;87.73;98660.08;1690517;83;21063;-43
2022/01/05 12:02:15;;;;;;;10.25;6.47;;;;;;;8.51;88.04;98660.91;1698710;84;21051;-37
2022/01/05 12:04:57;;;;;;;8.73;6.10;;;;;;;8.55;88.15;98666.94;1704991;83;21075;-37
2022/01/05 12:07:46;;;;;;;11.00;5.75;;;;;;;8.56;88.18;98667.34;1715081;82;21051;-37
2022/01/05 12:10:23;;;;;;;13.85;6.62;;;;;;;8.56;88.23;98669.09;1700549;83;21039;-36
2022/01/05 12:13:04;;;;;;;9.10;6.62;;;;;;;8.58;88.33;98675.13;1699411;83;21118;-37
2022/01/05 12:15:43;;;;;;;9.40;7.12;;;;;;;8.60;88.36;98670.77;1712289;83;20999;-36
2022/01/05 12:18:12;;;;;;;13.00;7.97;;;;;;;8.64;88.31;98673.30;1708687;83;20972;-36
2022/01/05 12:20:40;;;;;;;13.83;8.68;;;;;;;8.70;88.16;98668.42;1702598;83;21066;-37
2022/01/05 12:23:24;;;;;;;14.40;8.00;;;;;;;8.73;87.84;98671.81;1696426;83;21681;-41
2022/01/05 12:26:12;;;;;;;11.75;7.65;;;;;;;8.76;87.75;98681.34;1688103;83;21035;-43
2022/01/05 12:28:43;;;;;;;14.75;8.43;;;;;;;8.78;87.47;98690.84;1706549;83;21055;-36
2022/01/05 12:31:11;;;;;;;12.00;8.33;;;;;;;8.78;87.23;98686.08;1685472;83;21036;-37
2022/01/05 12:33:50;;;;;;;11.63;8.00;;;;;;;8.79;87.18;98696.92;1701537;83;21050;-37
2022/01/05 12:36:35;;;;;;;11.10;6.95;;;;;;;8.78;87.05;98688.69;1720955;81;21100;-43
2022/01/05 12:39:07;;;;;;;8.83;6.30;;;;;;;8.78;86.95;98679.56;1692078;83;21043;-43
2022/01/05 12:41:41;;;;;;;11.20;7.30;;;;;;;8.77;87.02;98676.55;1702199;82;21042;-36
2022/01/05 12:44:26;;;;;;;10.08;6.87;;;;;;;8.74;87.08;98676.14;1696713;83;21590;-43
2022/01/05 12:46:54;;;;;;;10.82;7.70;;;;;;;8.76;87.20;98679.59;1687376;83;28787;-43
2022/01/05 12:49:26;;;;;;;14.18;7.85;;;;;;;8.82;87.14;98689.05;1704526;83;21039;-37
2022/01/05 12:52:09;;;;;;;12.10;7.45;;;;;;;8.86;87.07;98702.88;1705867;83;21122;-37
2022/01/05 12:54:43;;;;;;;;;;;;;;;8.88;87.01;98693.30;1699481;84;21455;-36
2022/01/05 12:57:16;;;;;;;14.38;7.80;;;;;;;8.88;86.94;98690.25;1698138;83;20114;-42
2022/01/05 12:59:47;;;;;;;12.03;8.15;;;;;;;8.89;86.91;98704.14;1694028;83;21063;-43
2022/01/05 13:02:23;;;;;;;13.95;8.35;;;;;;;8.87;86.73;98708.09;1699369;83;21658;-43
2022/01/05 13:04:51;;;;;;;13.18;8.08;;;;;;;8.83;86.69;98706.42;1686517;83;21489;-36
2022/01/05 13:07:17;;;;;;;14.73;8.43;;;;;;;8.80;86.81;98703.84;1690206;84;21083;-37
2022/01/05 13:09:48;;;;;;;17.37;9.58;;;;;;;8.80;86.81;98692.12;1695750;83;21019;-43
2022/01/05 13:12:24;;;;;;;15.13;9.83;;;;;;;8.78;86.99;98699.97;1722743;82;21095;-37
2022/01/05 13:14:56;;;;;;;18.73;11.28;;;;;;;8.77;87.12;98710.00;1718418;83;21059;-37
2022/01/05 13:17:28;;;;;;;16.73;11.03;;;;;;;8.75;87.23;98710.45;1698105;84;21035;-37
2022/01/05 13:20:00;;;;;;;20.48;10.72;;;;;;;8.77;87.35;98703.48;1698457;84;21597;-43
2022/01/05 13:22:35;;;;;;;21.55;11.50;;;;;;;8.77;87.30;98711.30;1698194;84;21083;-36
2022/01/05 13:25:09;;;;;;;18.85;13.65;;;;;;;8.76;87.29;98718.71;1698427;83;21098;-37
2022/01/05 13:27:47;;;;;;;23.07;16.15;;;;;;;8.73;87.31;98698.34;1698534;83;21035;-42
2022/01/05 13:30:18;;;;;;;28.15;18.48;;;;;;;8.71;87.41;98694.91;1698747;84;21400;-38
2022/01/05 13:32:47;;;;;;;29.23;18.65;;;;;;;8.67;87.39;98709.73;1697621;84;21099;-43
2022/01/05 13:35:17;;;;;;;33.53;18.52;;;;;;;8.62;87.48;98707.64;1697976;84;21058;-37
2022/01/05 13:37:49;;;;;;;31.20;19.50;;;;;;;8.56;87.70;98716.02;1698904;83;21039;-43
2022/01/05 13:40:25;;;;;;;32.50;19.37;;;;;;;8.52;87.86;98715.20;1698615;84;21543;-37
2022/01/05 13:43:04;;;;;;;34.33;19.52;;;;;;;8.50;88.01;98707.86;1697420;83;21083;-36
2022/01/05 13:45:46;;;;;;;31.07;19.67;;;;;;;8.48;88.12;98716.16;1704293;84;21096;-37
2022/01/05 13:48:23;;;;;;;32.85;18.65;;;;;;;8.45;88.12;98711.84;1706293;84;21518;-42
2022/01/05 13:51:05;;;;;;;28.12;18.17;;;;;;;8.40;88.18;98714.95;1713662;83;21096;-37
